ADDS METAR Data INFO
IDs: Format: Raw Decoded Include TAF

Data at: 0425 UTC 26 May 2018

KSJT 260351Z AUTO 17007KT 10SM CLR 28/16 A2988 RMK AO2 SLP092 T02830161
KSJT 260251Z AUTO 18007KT 10SM CLR 28/16 A2986 RMK AO2 SLP086 T02830161 53006
KSJT 260151Z AUTO 17007KT 10SM CLR 31/16 A2985 RMK AO2 LTG DSNT W SLP080 T03060156
KSJT 260051Z 18006KT 10SM CLR 33/16 A2983 RMK AO2 SLP076 T03330156
KSJT 252351Z 18005KT 10SM CLR 35/14 A2984 RMK AO2 SLP080 T03500144 10361 20322 56020
KSJT 252251Z 19005KT 10SM CLR 36/14 A2986 RMK AO2 SLP085 T03560144
KSJT 252151Z 14007KT 10SM FEW090 36/17 A2989 RMK AO2 SLP093 T03560167
KSJT 252051Z 10SM CLR 36/16 A2991 RMK AO2 SLP100 T03560156 56024
KSJT 251951Z 16007KT 10SM CLR 35/17 A2993 RMK AO2 SLP107 T03500172
KSJT 251851Z 16010G15KT 10SM CLR 34/19 A2996 RMK AO2 SLP118 T03390189
KSJT 251751Z 19007KT 10SM CLR 32/20 A2998 RMK AO2 SLP127 T03220200 10322 20189 58014
KSJT 251651Z 18010KT 10SM CLR 31/21 A3000 RMK AO2 SLP133 T03060206
KSJT 251551Z 20013KT 10SM CLR 28/21 A3001 RMK AO2 SLP139 T02830206
KSJT 251451Z 19012G17KT 10SM CLR 27/21 A3003 RMK AO2 SLP143 T02670206 51010
KSJT 251351Z 19011G15KT 10SM CLR 24/21 A3002 RMK AO2 SLP140 T02440206
KSJT 251251Z 19008KT 10SM CLR 22/18 A3001 RMK AO2 SLP138 T02170183
KSJT 251151Z AUTO 22005KT 10SM CLR 19/17 A3000 RMK AO2 SLP133 T01940172 10244 20189 53003
KSJT 251051Z AUTO 17003KT 10SM CLR 21/17 A2998 RMK AO2 SLP127 T02060167
KSJT 250951Z AUTO 21007KT 10SM CLR 21/17 A2998 RMK AO2 SLP126 T02060167
KSJT 250851Z AUTO 16005KT 10SM CLR 21/17 A2998 RMK AO2 SLP129 T02110167 56013
KSJT 250751Z AUTO 20007KT 10SM CLR 22/17 A2999 RMK AO2 SLP130 T02220172
KSJT 250651Z AUTO 18005KT 10SM CLR 23/17 A3001 RMK AO2 SLP137 T02330172
KSJT 250551Z AUTO 19006KT 10SM CLR 23/17 A3002 RMK AO2 SLP143 T02330172 10322 20233 403330194 50005
KSJT 250451Z AUTO 19007KT 10SM CLR 24/17 A3003 RMK AO2 SLP145 T02390172
KSJT 250351Z AUTO 17005KT 10SM CLR 25/17 A3003 RMK AO2 SLP146 T02500172
KSJT 250251Z AUTO 15005KT 10SM CLR 26/18 A3001 RMK AO2 SLP137 T02610178 53012
KSJT 250151Z AUTO 16005KT 10SM CLR 28/17 A2998 RMK AO2 SLP129 T02830172
KSJT 250051Z 00000KT 10SM CLR 31/17 A2997 RMK AO2 SLP125 T03060172
KSJT 242351Z 14005KT 10SM CLR 32/17 A2997 RMK AO2 SLP122 T03220167 10333 20294 57020
KSJT 242251Z 19006KT 10SM CLR 33/17 A2999 RMK AO2 SLP130 T03280172
KSJT 242151Z 20007KT 10SM CLR 33/18 A3001 RMK AO2 SLP137 T03280178
KSJT 242051Z 21007KT 10SM CLR 32/18 A3003 RMK AO2 SLP144 T03220183 56023
KSJT 241951Z VRB04KT 10SM CLR 32/19 A3006 RMK AO2 SLP152 T03170189
KSJT 241851Z 16006KT 10SM FEW042 30/19 A3008 RMK AO2 SLP161 T03000189
KSJT 241751Z 19005KT 10SM FEW034 FEW055 29/20 A3010 RMK AO2 SLP171 T02890200 10294 20217 58003
KSJT 241651Z 21008KT 10SM BKN033 OVC042 28/20 A3012 RMK AO2 SLP176 T02780200